Time,TemperatureF,DewpointF,PressureIn,WindDirection,WindDirectionDegrees,WindSpeedMPH,WindSpeedGustMPH,Humidity,HourlyPrecipIn,Conditions,Clouds,dailyrainin,SoftwareType,DateUTC
2013-02-03 00:03:00,42.1,30.0,30.09,NE,45,0.0,-999.0,62,0.00,Rainy,,0.00,Open2300\PHP-WU,2013-02-03 05:03:00,
2013-02-03 00:08:00,41.9,30.2,30.09,SW,225,0.0,-999.0,63,0.00,Rainy,,0.00,Open2300\PHP-WU,2013-02-03 05:08:00,
2013-02-03 00:14:00,41.7,30.0,30.08,West,270,0.0,-999.0,63,0.00,Rainy,,0.00,Open2300\PHP-WU,2013-02-03 05:14:00,
2013-02-03 00:17:00,41.7,30.4,30.08,West,270,0.0,-999.0,64,0.00,Rainy,,0.00,Open2300\PHP-WU,2013-02-03 05:17:00,
2013-02-03 00:23:00,41.5,30.6,30.08,West,270,0.0,-999.0,65,0.00,Rainy,,0.00,Open2300\PHP-WU,2013-02-03 05:23:00,
2013-02-03 00:29:00,41.5,31.0,30.07,West,270,0.0,-999.0,66,0.00,Rainy,,0.00,Open2300\PHP-WU,2013-02-03 05:29:00,
2013-02-03 00:35:00,41.5,31.0,30.07,WSW,247,0.0,-999.0,66,0.00,Rainy,,0.00,Open2300\PHP-WU,2013-02-03 05:35:00,
2013-02-03 00:41:00,41.5,31.8,30.07,WSW,247,0.0,-999.0,68,0.00,Rainy,,0.00,Open2300\PHP-WU,2013-02-03 05:41:00,
2013-02-03 00:47:00,41.4,31.6,30.06,WSW,247,0.0,-999.0,68,0.00,Rainy,,0.00,Open2300\PHP-WU,2013-02-03 05:47:00,
2013-02-03 00:53:00,41.4,31.6,30.06,WSW,247,0.0,-999.0,68,0.00,Rainy,,0.00,Open2300\PHP-WU,2013-02-03 05:53:00,
2013-02-03 00:59:00,41.4,31.6,30.06,WSW,247,0.0,-999.0,68,0.00,Rainy,,0.00,Open2300\PHP-WU,2013-02-03 05:59:00,
2013-02-03 01:05:00,41.4,31.2,30.06,SW,225,0.0,-999.0,67,0.00,Rainy,,0.00,Open2300\PHP-WU,2013-02-03 06:05:00,
2013-02-03 01:11:00,41.2,31.0,30.05,WSW,247,0.0,-999.0,67,0.00,Rainy,,0.00,Open2300\PHP-WU,2013-02-03 06:11:00,
2013-02-03 01:17:00,41.2,30.7,30.06,WSW,247,0.0,-999.0,66,0.00,Rainy,,0.00,Open2300\PHP-WU,2013-02-03 06:17:00,
2013-02-03 01:23:00,41.2,30.7,30.06,West,270,0.0,-999.0,66,0.00,Rainy,,0.00,Open2300\PHP-WU,2013-02-03 06:23:00,
2013-02-03 01:29:00,41.0,30.5,30.05,SW,225,0.0,-999.0,66,0.00,Rainy,,0.00,Open2300\PHP-WU,2013-02-03 06:29:00,
2013-02-03 01:35:00,40.8,30.7,30.05,SW,225,0.0,-999.0,67,0.00,Rainy,,0.00,Open2300\PHP-WU,2013-02-03 06:35:00,
2013-02-03 01:41:00,40.8,30.7,30.04,SW,225,0.0,-999.0,67,0.00,Rainy,,0.00,Open2300\PHP-WU,2013-02-03 06:41:00,
2013-02-03 01:47:00,40.8,30.7,30.04,SW,225,0.0,-999.0,67,0.00,Rainy,,0.00,Open2300\PHP-WU,2013-02-03 06:47:00,
2013-02-03 01:53:00,40.6,30.5,30.04,West,270,0.0,-999.0,67,0.00,Rainy,,0.00,Open2300\PHP-WU,2013-02-03 06:53:00,
2013-02-03 01:59:00,40.6,30.9,30.03,West,270,0.0,-999.0,68,0.00,Rainy,,0.00,Open2300\PHP-WU,2013-02-03 06:59:00,
2013-02-03 02:05:00,40.5,30.7,30.03,NNE,22,0.0,-999.0,68,0.00,Rainy,,0.00,Open2300\PHP-WU,2013-02-03 07:05:00,
2013-02-03 02:11:00,40.3,30.5,30.04,West,270,0.0,-999.0,68,0.00,Rainy,,0.00,Open2300\PHP-WU,2013-02-03 07:11:00,
2013-02-03 02:17:00,40.3,30.5,30.03,WSW,247,0.0,-999.0,68,0.00,Rainy,,0.00,Open2300\PHP-WU,2013-02-03 07:17:00,
2013-02-03 02:23:00,40.1,30.3,30.03,West,270,0.0,-999.0,68,0.00,Rainy,,0.00,Open2300\PHP-WU,2013-02-03 07:23:00,
2013-02-03 02:29:00,39.9,30.5,30.03,WSW,247,0.0,-999.0,69,0.00,Rainy,,0.00,Open2300\PHP-WU,2013-02-03 07:29:00,
2013-02-03 02:35:00,39.7,30.4,30.03,WSW,247,0.0,-999.0,69,0.00,Rainy,,0.00,Open2300\PHP-WU,2013-02-03 07:35:00,
2013-02-03 02:41:00,39.4,30.0,30.03,West,270,0.0,-999.0,69,0.00,Rainy,,0.00,Open2300\PHP-WU,2013-02-03 07:41:00,
2013-02-03 02:47:00,39.0,29.7,30.03,WSW,247,0.0,-999.0,69,0.00,Rainy,,0.00,Open2300\PHP-WU,2013-02-03 07:47:00,
2013-02-03 02:53:00,38.5,29.2,30.03,SW,225,0.0,-999.0,69,0.00,Rainy,,0.00,Open2300\PHP-WU,2013-02-03 07:53:00,
2013-02-03 03:01:00,38.1,28.9,30.03,WSW,247,0.0,-999.0,69,0.00,Rainy,,0.00,Open2300\PHP-WU,2013-02-03 08:01:00,
2013-02-03 03:09:00,37.9,29.1,30.02,WSW,247,0.0,-999.0,70,0.00,Rainy,,0.00,Open2300\PHP-WU,2013-02-03 08:09:00,
2013-02-03 03:15:00,37.6,28.7,30.02,WSW,247,0.0,-999.0,70,0.00,Rainy,,0.00,Open2300\PHP-WU,2013-02-03 08:15:00,
2013-02-03 03:21:00,37.4,28.9,30.02,WSW,247,0.0,-999.0,71,0.00,Rainy,,0.00,Open2300\PHP-WU,2013-02-03 08:21:00,
2013-02-03 03:27:00,37.2,28.7,30.02,WSW,247,0.0,-999.0,71,0.00,Rainy,,0.00,Open2300\PHP-WU,2013-02-03 08:27:00,
2013-02-03 03:33:00,36.7,28.2,30.01,WSW,247,0.0,-999.0,71,0.00,Rainy,,0.00,Open2300\PHP-WU,2013-02-03 08:33:00,
2013-02-03 03:39:00,36.3,27.8,30.01,WSW,247,0.0,-999.0,71,0.00,Rainy,,0.00,Open2300\PHP-WU,2013-02-03 08:39:00,
2013-02-03 03:45:00,35.8,27.6,30.00,WSW,247,0.0,-999.0,72,0.00,Rainy,,0.00,Open2300\PHP-WU,2013-02-03 08:45:00,
2013-02-03 03:51:00,35.2,27.1,30.00,WSW,247,0.0,-999.0,72,0.00,Rainy,,0.00,Open2300\PHP-WU,2013-02-03 08:51:00,
2013-02-03 03:57:00,34.7,26.9,30.00,WSW,247,0.0,-999.0,73,0.00,Rainy,,0.00,Open2300\PHP-WU,2013-02-03 08:57:00,
2013-02-03 04:03:00,34.3,26.5,30.00,WSW,247,0.0,-999.0,73,0.00,Rainy,,0.00,Open2300\PHP-WU,2013-02-03 09:03:00,
2013-02-03 04:09:00,33.8,26.0,30.00,WSW,247,0.0,-999.0,73,0.00,Rainy,,0.00,Open2300\PHP-WU,2013-02-03 09:09:00,
2013-02-03 04:15:00,33.4,25.6,30.00,WSW,247,0.0,-999.0,73,0.00,Rainy,,0.00,Open2300\PHP-WU,2013-02-03 09:15:00,
2013-02-03 04:21:00,32.7,25.3,30.00,WSW,247,0.0,-999.0,74,0.00,Rainy,,0.00,Open2300\PHP-WU,2013-02-03 09:21:00,
2013-02-03 04:27:00,32.4,25.0,30.00,WSW,247,0.0,-999.0,74,0.00,Rainy,,0.00,Open2300\PHP-WU,2013-02-03 09:27:00,
2013-02-03 04:33:00,32.2,25.1,29.99,WSW,247,0.0,-999.0,75,0.00,Rainy,,0.00,Open2300\PHP-WU,2013-02-03 09:33:00,
2013-02-03 04:39:00,32.2,25.1,29.99,WSW,247,0.0,-999.0,75,0.00,Rainy,,0.00,Open2300\PHP-WU,2013-02-03 09:39:00,
2013-02-03 04:45:00,32.4,25.6,29.99,WSW,247,0.0,-999.0,76,0.00,Rainy,,0.00,Open2300\PHP-WU,2013-02-03 09:45:00,
2013-02-03 04:51:00,32.7,26.3,29.99,WSW,247,0.0,-999.0,77,0.00,Rainy,,0.00,Open2300\PHP-WU,2013-02-03 09:51:00,
2013-02-03 04:57:00,33.3,26.8,29.99,WSW,247,0.0,-999.0,77,0.00,Rainy,,0.00,Open2300\PHP-WU,2013-02-03 09:57:00,
2013-02-03 05:03:00,33.6,27.1,29.99,WSW,247,0.0,-999.0,77,0.00,Rainy,,0.00,Open2300\PHP-WU,2013-02-03 10:03:00,
2013-02-03 05:09:00,33.6,27.1,29.99,WSW,247,0.0,-999.0,77,0.00,Rainy,,0.00,Open2300\PHP-WU,2013-02-03 10:09:00,
2013-02-03 05:15:00,34.0,27.4,29.99,WSW,247,0.0,-999.0,77,0.00,Rainy,,0.00,Open2300\PHP-WU,2013-02-03 10:15:00,
2013-02-03 05:21:00,34.3,28.1,29.99,WSW,247,0.0,-999.0,78,0.00,Rainy,,0.00,Open2300\PHP-WU,2013-02-03 10:21:00,
2013-02-03 05:27:00,34.7,28.5,29.99,WSW,247,0.0,-999.0,78,0.00,Rainy,,0.00,Open2300\PHP-WU,2013-02-03 10:27:00,
2013-02-03 05:33:00,35.2,29.0,29.99,WSW,247,0.0,-999.0,78,0.00,Rainy,,0.00,Open2300\PHP-WU,2013-02-03 10:33:00,
2013-02-03 05:39:00,35.2,29.0,29.99,WSW,247,0.0,-999.0,78,0.00,Rainy,,0.00,Open2300\PHP-WU,2013-02-03 10:39:00,
2013-02-03 05:45:00,35.2,29.0,29.99,WSW,247,0.0,-999.0,78,0.00,Rainy,,0.00,Open2300\PHP-WU,2013-02-03 10:45:00,
2013-02-03 05:51:00,35.4,29.2,29.99,WSW,247,0.0,-999.0,78,0.00,Rainy,,0.00,Open2300\PHP-WU,2013-02-03 10:51:00,
2013-02-03 05:57:00,35.8,29.6,30.00,WSW,247,0.0,-999.0,78,0.00,Rainy,,0.00,Open2300\PHP-WU,2013-02-03 10:57:00,
2013-02-03 06:03:00,36.0,29.7,30.00,WSW,247,0.0,-999.0,78,0.00,Rainy,,0.00,Open2300\PHP-WU,2013-02-03 11:03:00,
2013-02-03 06:09:00,36.1,29.9,30.00,SW,225,0.0,-999.0,78,0.00,Rainy,,0.00,Open2300\PHP-WU,2013-02-03 11:09:00,
2013-02-03 06:15:00,36.3,30.1,30.00,SW,225,0.0,-999.0,78,0.00,Rainy,,0.00,Open2300\PHP-WU,2013-02-03 11:15:00,
2013-02-03 06:20:00,36.3,30.1,29.99,SW,225,0.0,-999.0,78,0.00,Rainy,,0.00,Open2300\PHP-WU,2013-02-03 11:20:00,
2013-02-03 06:27:00,36.3,30.1,29.99,SW,225,0.0,-999.0,78,0.00,Rainy,,0.00,Open2300\PHP-WU,2013-02-03 11:27:00,
2013-02-03 06:32:00,36.3,30.1,29.99,SW,225,0.0,-999.0,78,0.00,Rainy,,0.00,Open2300\PHP-WU,2013-02-03 11:32:00,
2013-02-03 06:39:00,36.3,30.1,29.99,SW,225,0.0,-999.0,78,0.00,Rainy,,0.00,Open2300\PHP-WU,2013-02-03 11:39:00,
2013-02-03 06:44:00,36.3,30.1,29.99,SW,225,0.0,-999.0,78,0.00,Rainy,,0.00,Open2300\PHP-WU,2013-02-03 11:44:00,
2013-02-03 06:51:00,36.1,29.9,29.99,SW,225,0.0,-999.0,78,0.00,Rainy,,0.00,Open2300\PHP-WU,2013-02-03 11:51:00,
2013-02-03 06:56:00,36.1,29.9,30.00,SW,225,0.0,-999.0,78,0.00,Rainy,,0.00,Open2300\PHP-WU,2013-02-03 11:56:00,
2013-02-03 07:03:00,36.0,29.7,30.00,SW,225,0.0,-999.0,78,0.00,Rainy,,0.00,Open2300\PHP-WU,2013-02-03 12:03:00,
2013-02-03 07:08:00,36.0,29.7,29.99,SW,225,0.0,-999.0,78,0.00,Rainy,,0.00,Open2300\PHP-WU,2013-02-03 12:08:00,
2013-02-03 07:15:00,36.0,29.7,30.00,SW,225,0.0,-999.0,78,0.00,Rainy,,0.00,Open2300\PHP-WU,2013-02-03 12:15:00,
2013-02-03 07:21:00,36.0,29.7,30.00,SW,225,0.0,-999.0,78,0.00,Rainy,,0.00,Open2300\PHP-WU,2013-02-03 12:21:00,
2013-02-03 07:26:00,36.0,29.7,30.00,SW,225,0.0,-999.0,78,0.00,Rainy,,0.00,Open2300\PHP-WU,2013-02-03 12:26:00,
2013-02-03 07:32:00,36.0,29.7,30.01,SW,225,0.0,-999.0,78,0.00,Rainy,,0.00,Open2300\PHP-WU,2013-02-03 12:32:00,
2013-02-03 07:38:00,36.0,29.7,30.01,SW,225,0.0,-999.0,78,0.00,Rainy,,0.00,Open2300\PHP-WU,2013-02-03 12:38:00,
2013-02-03 07:45:00,36.1,29.9,30.01,SW,225,0.0,-999.0,78,0.00,Rainy,,0.00,Open2300\PHP-WU,2013-02-03 12:45:00,
2013-02-03 07:50:00,36.3,30.1,30.02,SW,225,0.0,-999.0,78,0.00,Rainy,,0.00,Open2300\PHP-WU,2013-02-03 12:50:00,
2013-02-03 07:56:00,36.3,30.1,30.01,SW,225,0.0,-999.0,78,0.00,Rainy,,0.00,Open2300\PHP-WU,2013-02-03 12:56:00,
2013-02-03 08:02:00,36.5,30.3,30.02,SW,225,0.0,-999.0,78,0.00,Rainy,,0.00,Open2300\PHP-WU,2013-02-03 13:02:00,
2013-02-03 08:08:00,36.7,30.5,30.02,SW,225,0.0,-999.0,78,0.00,Rainy,,0.00,Open2300\PHP-WU,2013-02-03 13:08:00,
2013-02-03 08:14:00,37.0,30.8,30.02,WSW,247,0.0,-999.0,78,0.00,Rainy,,0.00,Open2300\PHP-WU,2013-02-03 13:14:00,
2013-02-03 08:20:00,37.2,31.3,30.02,WSW,247,0.0,-999.0,79,0.00,Rainy,,0.00,Open2300\PHP-WU,2013-02-03 13:20:00,
2013-02-03 08:26:00,37.4,31.5,30.02,WSW,247,0.0,-999.0,79,0.00,Rainy,,0.00,Open2300\PHP-WU,2013-02-03 13:26:00,
2013-02-03 08:32:00,37.9,32.0,30.02,WSW,247,0.0,-999.0,79,0.00,Rainy,,0.00,Open2300\PHP-WU,2013-02-03 13:32:00,
2013-02-03 08:38:00,38.1,32.2,30.02,WSW,247,0.0,-999.0,79,0.00,Rainy,,0.00,Open2300\PHP-WU,2013-02-03 13:38:00,
2013-02-03 08:44:00,38.1,32.2,30.02,WSW,247,0.0,-999.0,79,0.00,Rainy,,0.00,Open2300\PHP-WU,2013-02-03 13:44:00,
2013-02-03 08:50:00,38.1,32.2,30.02,WSW,247,0.0,-999.0,79,0.00,Rainy,,0.00,Open2300\PHP-WU,2013-02-03 13:50:00,
2013-02-03 08:56:00,38.3,32.4,30.02,SW,225,0.0,-999.0,79,0.00,Rainy,,0.00,Open2300\PHP-WU,2013-02-03 13:56:00,
2013-02-03 09:02:00,40.1,34.7,30.01,WSW,247,0.0,-999.0,81,0.00,Rainy,,0.00,Open2300\PHP-WU,2013-02-03 14:02:00,
2013-02-03 09:08:00,43.2,37.4,30.01,West,270,0.0,-999.0,80,0.00,Rainy,,0.00,Open2300\PHP-WU,2013-02-03 14:08:00,
2013-02-03 09:14:00,47.8,39.2,30.01,SW,225,0.0,-999.0,72,0.00,Rainy,,0.00,Open2300\PHP-WU,2013-02-03 14:14:00,
2013-02-03 09:20:00,50.7,38.1,30.01,West,270,0.0,-999.0,62,0.00,Rainy,,0.00,Open2300\PHP-WU,2013-02-03 14:20:00,
2013-02-03 09:26:00,51.3,36.9,30.01,East,90,0.0,-999.0,58,0.00,Rainy,,0.00,Open2300\PHP-WU,2013-02-03 14:26:00,
2013-02-03 09:32:00,50.7,34.6,30.01,SSW,202,0.0,-999.0,54,0.00,Rainy,,0.00,Open2300\PHP-WU,2013-02-03 14:32:00,
2013-02-03 09:38:00,50.5,34.0,30.02,NE,45,0.0,-999.0,53,0.00,Rainy,,0.00,Open2300\PHP-WU,2013-02-03 14:38:00,
2013-02-03 09:44:00,50.2,33.7,30.02,NW,315,0.0,-999.0,53,0.00,Rainy,,0.00,Open2300\PHP-WU,2013-02-03 14:44:00,
2013-02-03 09:50:00,49.6,32.7,30.02,West,270,0.0,-999.0,52,0.00,Rainy,,0.00,Open2300\PHP-WU,2013-02-03 14:50:00,
2013-02-03 09:56:00,49.3,31.9,30.02,WNW,292,2.0,-999.0,51,0.00,Rainy,,0.00,Open2300\PHP-WU,2013-02-03 14:56:00,
2013-02-03 10:02:00,49.1,31.3,30.02,NNE,22,0.0,-999.0,50,0.00,Rainy,,0.00,Open2300\PHP-WU,2013-02-03 15:02:00,
2013-02-03 10:08:00,48.6,29.1,30.02,North,0,6.3,-999.0,47,0.00,Rainy,,0.00,Open2300\PHP-WU,2013-02-03 15:08:00,
2013-02-03 10:14:00,46.9,28.2,30.02,WSW,247,0.0,-999.0,48,0.00,Rainy,,0.00,Open2300\PHP-WU,2013-02-03 15:14:00,
2013-02-03 10:20:00,47.1,28.3,30.02,SW,225,0.0,-999.0,48,0.00,Rainy,,0.00,Open2300\PHP-WU,2013-02-03 15:20:00,
2013-02-03 10:26:00,47.3,28.5,30.02,WSW,247,0.0,-999.0,48,0.00,Rainy,,0.00,Open2300\PHP-WU,2013-02-03 15:26:00,
2013-02-03 10:32:00,47.8,27.9,30.02,West,270,0.0,-999.0,46,0.00,Rainy,,0.00,Open2300\PHP-WU,2013-02-03 15:32:00,
2013-02-03 10:38:00,47.3,27.4,30.02,South,180,0.0,-999.0,46,0.00,Rainy,,0.00,Open2300\PHP-WU,2013-02-03 15:38:00,
2013-02-03 10:44:00,47.1,27.8,30.02,WSW,247,0.0,-999.0,47,0.00,Rainy,,0.00,Open2300\PHP-WU,2013-02-03 15:44:00,
2013-02-03 10:50:00,47.1,27.8,30.02,SW,225,0.0,-999.0,47,0.00,Rainy,,0.00,Open2300\PHP-WU,2013-02-03 15:50:00,
2013-02-03 10:56:00,47.1,27.8,30.02,SW,225,0.0,-999.0,47,0.00,Rainy,,0.00,Open2300\PHP-WU,2013-02-03 15:56:00,
2013-02-03 11:02:00,47.5,28.1,30.01,SW,225,0.0,-999.0,47,0.00,Rainy,,0.00,Open2300\PHP-WU,2013-02-03 16:02:00,
2013-02-03 11:08:00,47.5,27.6,30.01,SE,135,0.0,-999.0,46,0.00,Rainy,,0.00,Open2300\PHP-WU,2013-02-03 16:08:00,
2013-02-03 11:14:00,47.1,27.2,30.00,WSW,247,0.9,-999.0,46,0.00,Rainy,,0.00,Open2300\PHP-WU,2013-02-03 16:14:00,
2013-02-03 11:20:00,46.8,27.5,30.00,West,270,0.0,-999.0,47,0.00,Rainy,,0.00,Open2300\PHP-WU,2013-02-03 16:20:00,
2013-02-03 11:26:00,46.9,27.6,30.00,SW,225,0.4,-999.0,47,0.00,Rainy,,0.00,Open2300\PHP-WU,2013-02-03 16:26:00,
2013-02-03 11:32:00,47.5,28.1,30.00,SSE,157,0.0,-999.0,47,0.00,Rainy,,0.00,Open2300\PHP-WU,2013-02-03 16:32:00,
2013-02-03 11:38:00,47.3,27.4,30.00,North,0,0.0,-999.0,46,0.00,Rainy,,0.00,Open2300\PHP-WU,2013-02-03 16:38:00,
2013-02-03 11:44:00,46.9,27.6,29.99,WSW,247,0.0,-999.0,47,0.00,Rainy,,0.00,Open2300\PHP-WU,2013-02-03 16:44:00,
2013-02-03 11:50:00,47.1,27.8,29.99,West,270,0.0,-999.0,47,0.00,Rainy,,0.00,Open2300\PHP-WU,2013-02-03 16:50:00,
2013-02-03 11:56:00,47.5,28.1,29.99,West,270,0.0,-999.0,47,0.00,Rainy,,0.00,Open2300\PHP-WU,2013-02-03 16:56:00,
2013-02-03 12:02:00,47.5,27.6,29.99,WSW,247,0.0,-999.0,46,0.00,Rainy,,0.00,Open2300\PHP-WU,2013-02-03 17:02:00,
2013-02-03 12:08:00,47.1,26.7,29.99,SSE,157,0.0,-999.0,45,0.00,Rainy,,0.00,Open2300\PHP-WU,2013-02-03 17:08:00,
2013-02-03 12:14:00,47.7,27.2,29.99,SSW,202,0.0,-999.0,45,0.00,Rainy,,0.00,Open2300\PHP-WU,2013-02-03 17:14:00,
2013-02-03 12:20:00,48.7,28.7,29.99,West,270,0.0,-999.0,46,0.00,Rainy,,0.00,Open2300\PHP-WU,2013-02-03 17:20:00,
2013-02-03 12:26:00,49.1,28.5,29.99,WSW,247,0.0,-999.0,45,0.00,Rainy,,0.00,Open2300\PHP-WU,2013-02-03 17:26:00,
2013-02-03 12:32:00,50.4,29.2,29.99,SW,225,0.0,-999.0,44,0.00,Rainy,,0.00,Open2300\PHP-WU,2013-02-03 17:32:00,
2013-02-03 12:38:00,49.6,28.5,29.98,WSW,247,0.0,-999.0,44,0.00,Rainy,,0.00,Open2300\PHP-WU,2013-02-03 17:38:00,
2013-02-03 12:44:00,49.1,28.5,29.97,NNW,337,0.0,-999.0,45,0.00,Rainy,,0.00,Open2300\PHP-WU,2013-02-03 17:44:00,
2013-02-03 12:50:00,48.7,28.2,29.97,WSW,247,0.0,-999.0,45,0.00,Rainy,,0.00,Open2300\PHP-WU,2013-02-03 17:50:00,
2013-02-03 12:56:00,49.1,28.5,29.97,West,270,0.0,-999.0,45,0.00,Rainy,,0.00,Open2300\PHP-WU,2013-02-03 17:56:00,
2013-02-03 13:02:00,49.1,28.0,29.96,NE,45,0.0,-999.0,44,0.00,Rainy,,0.00,Open2300\PHP-WU,2013-02-03 18:02:00,
2013-02-03 13:08:00,48.9,28.4,29.96,SW,225,0.0,-999.0,45,0.00,Rainy,,0.00,Open2300\PHP-WU,2013-02-03 18:08:00,
2013-02-03 13:14:00,48.6,28.6,29.95,SW,225,0.0,-999.0,46,0.00,Rainy,,0.00,Open2300\PHP-WU,2013-02-03 18:14:00,
2013-02-03 13:20:00,49.8,29.2,29.94,WSW,247,0.0,-999.0,45,0.00,Rainy,,0.00,Open2300\PHP-WU,2013-02-03 18:20:00,
2013-02-03 13:26:00,51.6,30.8,29.94,SW,225,0.0,-999.0,45,0.00,Rainy,,0.00,Open2300\PHP-WU,2013-02-03 18:26:00,
2013-02-03 13:32:00,52.2,30.2,29.94,WSW,247,0.0,-999.0,43,0.00,Rainy,,0.00,Open2300\PHP-WU,2013-02-03 18:32:00,
2013-02-03 13:38:00,51.6,29.2,29.93,SSW,202,0.0,-999.0,42,0.00,Rainy,,0.00,Open2300\PHP-WU,2013-02-03 18:38:00,
2013-02-03 13:44:00,50.7,29.5,29.93,WNW,292,0.0,-999.0,44,0.00,Rainy,,0.00,Open2300\PHP-WU,2013-02-03 18:44:00,
2013-02-03 13:50:00,50.7,29.5,29.93,WSW,247,0.0,-999.0,44,0.00,Rainy,,0.00,Open2300\PHP-WU,2013-02-03 18:50:00,
2013-02-03 13:56:00,51.3,29.4,29.94,WSW,247,2.2,-999.0,43,0.00,Rainy,,0.00,Open2300\PHP-WU,2013-02-03 18:56:00,
2013-02-03 14:02:00,51.8,29.9,29.93,West,270,0.0,-999.0,43,0.00,Rainy,,0.00,Open2300\PHP-WU,2013-02-03 19:02:00,
2013-02-03 14:08:00,51.6,29.7,29.93,WSW,247,0.0,-999.0,43,0.00,Rainy,,0.00,Open2300\PHP-WU,2013-02-03 19:08:00,
2013-02-03 14:14:00,51.6,29.2,29.93,ENE,67,0.0,-999.0,42,0.00,Rainy,,0.00,Open2300\PHP-WU,2013-02-03 19:14:00,
2013-02-03 14:20:00,51.1,29.2,29.93,North,0,0.0,-999.0,43,0.00,Rainy,,0.00,Open2300\PHP-WU,2013-02-03 19:20:00,
2013-02-03 14:26:00,51.6,29.2,29.93,NW,315,0.0,-999.0,42,0.00,Rainy,,0.00,Open2300\PHP-WU,2013-02-03 19:26:00,
2013-02-03 14:32:00,51.6,29.2,29.93,WSW,247,1.6,-999.0,42,0.00,Rainy,,0.00,Open2300\PHP-WU,2013-02-03 19:32:00,
2013-02-03 14:38:00,51.3,28.9,29.93,SW,225,0.0,-999.0,42,0.00,Rainy,,0.00,Open2300\PHP-WU,2013-02-03 19:38:00,
2013-02-03 14:44:00,50.5,28.8,29.92,WSW,247,0.0,-999.0,43,0.00,Rainy,,0.00,Open2300\PHP-WU,2013-02-03 19:44:00,
2013-02-03 14:50:00,51.1,29.2,29.93,SSW,202,0.0,-999.0,43,0.00,Rainy,,0.00,Open2300\PHP-WU,2013-02-03 19:50:00,
2013-02-03 14:56:00,50.7,28.9,29.92,WSW,247,0.0,-999.0,43,0.00,Rainy,,0.00,Open2300\PHP-WU,2013-02-03 19:56:00,
2013-02-03 15:03:00,50.5,28.8,29.92,West,270,1.1,-999.0,43,0.00,Rainy,,0.00,Open2300\PHP-WU,2013-02-03 20:03:00,
2013-02-03 15:09:00,50.4,28.6,29.92,ENE,67,0.0,-999.0,43,0.00,Rainy,,0.00,Open2300\PHP-WU,2013-02-03 20:09:00,
2013-02-03 15:15:00,50.2,28.4,29.92,WSW,247,0.0,-999.0,43,0.00,Rainy,,0.00,Open2300\PHP-WU,2013-02-03 20:15:00,
2013-02-03 15:21:00,49.8,28.7,29.92,West,270,0.4,-999.0,44,0.00,Rainy,,0.00,Open2300\PHP-WU,2013-02-03 20:21:00,
2013-02-03 15:27:00,49.6,28.5,29.92,West,270,0.0,-999.0,44,0.00,Rainy,,0.00,Open2300\PHP-WU,2013-02-03 20:27:00,
2013-02-03 15:33:00,49.1,28.0,29.92,West,270,0.0,-999.0,44,0.00,Rainy,,0.00,Open2300\PHP-WU,2013-02-03 20:33:00,
2013-02-03 15:39:00,49.1,28.5,29.92,West,270,0.0,-999.0,45,0.00,Rainy,,0.00,Open2300\PHP-WU,2013-02-03 20:39:00,
2013-02-03 15:45:00,49.1,28.5,29.92,West,270,0.0,-999.0,45,0.00,Rainy,,0.00,Open2300\PHP-WU,2013-02-03 20:45:00,
2013-02-03 15:51:00,49.1,28.5,29.93,West,270,0.0,-999.0,45,0.00,Rainy,,0.00,Open2300\PHP-WU,2013-02-03 20:51:00,
2013-02-03 15:57:00,49.1,29.1,29.93,West,270,0.0,-999.0,46,0.00,Rainy,,0.00,Open2300\PHP-WU,2013-02-03 20:57:00,
2013-02-03 16:03:00,49.3,29.2,29.93,West,270,0.0,-999.0,46,0.00,Rainy,,0.00,Open2300\PHP-WU,2013-02-03 21:03:00,
2013-02-03 16:09:00,49.5,28.9,29.93,WSW,247,2.7,-999.0,45,0.00,Rainy,,0.00,Open2300\PHP-WU,2013-02-03 21:09:00,
2013-02-03 16:15:00,49.3,28.7,29.93,West,270,0.0,-999.0,45,0.00,Rainy,,0.00,Open2300\PHP-WU,2013-02-03 21:15:00,
2013-02-03 16:21:00,49.5,28.9,29.93,West,270,0.0,-999.0,45,0.00,Rainy,,0.00,Open2300\PHP-WU,2013-02-03 21:21:00,
2013-02-03 16:27:00,48.9,28.4,29.93,WNW,292,0.0,-999.0,45,0.00,Rainy,,0.00,Open2300\PHP-WU,2013-02-03 21:27:00,
2013-02-03 16:33:00,48.4,28.4,29.93,SW,225,0.0,-999.0,46,0.00,Rainy,,0.00,Open2300\PHP-WU,2013-02-03 21:33:00,
2013-02-03 16:39:00,48.0,28.1,29.93,West,270,1.8,-999.0,46,0.00,Rainy,,0.00,Open2300\PHP-WU,2013-02-03 21:39:00,
2013-02-03 16:45:00,48.0,28.1,29.93,WSW,247,0.0,-999.0,46,0.00,Rainy,,0.00,Open2300\PHP-WU,2013-02-03 21:45:00,
2013-02-03 16:51:00,47.5,27.6,29.94,SSE,157,1.6,-999.0,46,0.00,Rainy,,0.00,Open2300\PHP-WU,2013-02-03 21:51:00,
2013-02-03 16:57:00,47.1,27.8,29.94,NE,45,0.0,-999.0,47,0.00,Rainy,,0.00,Open2300\PHP-WU,2013-02-03 21:57:00,
2013-02-03 17:03:00,46.9,27.6,29.94,West,270,0.0,-999.0,47,0.00,Rainy,,0.00,Open2300\PHP-WU,2013-02-03 22:03:00,
2013-02-03 17:09:00,46.6,27.8,29.94,SW,225,0.0,-999.0,48,0.00,Rainy,,0.00,Open2300\PHP-WU,2013-02-03 22:09:00,
2013-02-03 17:15:00,46.4,27.7,29.94,WSW,247,0.0,-999.0,48,0.00,Rainy,,0.00,Open2300\PHP-WU,2013-02-03 22:15:00,
2013-02-03 17:21:00,46.2,27.5,29.95,ENE,67,0.0,-999.0,48,0.00,Rainy,,0.00,Open2300\PHP-WU,2013-02-03 22:21:00,
2013-02-03 17:27:00,46.2,27.5,29.95,SSW,202,0.0,-999.0,48,0.00,Rainy,,0.00,Open2300\PHP-WU,2013-02-03 22:27:00,
2013-02-03 17:33:00,46.0,27.9,29.95,NE,45,0.0,-999.0,49,0.00,Rainy,,0.00,Open2300\PHP-WU,2013-02-03 22:33:00,
2013-02-03 17:39:00,45.7,27.6,29.96,North,0,0.0,-999.0,49,0.00,Rainy,,0.00,Open2300\PHP-WU,2013-02-03 22:39:00,
2013-02-03 17:45:00,45.3,27.8,29.96,SE,135,0.0,-999.0,50,0.00,Rainy,,0.00,Open2300\PHP-WU,2013-02-03 22:45:00,
2013-02-03 17:51:00,45.0,27.5,29.97,West,270,0.0,-999.0,50,0.00,Rainy,,0.00,Open2300\PHP-WU,2013-02-03 22:51:00,
2013-02-03 17:57:00,44.4,27.0,29.97,WSW,247,0.0,-999.0,50,0.00,Rainy,,0.00,Open2300\PHP-WU,2013-02-03 22:57:00,
2013-02-03 18:03:00,43.5,26.6,29.97,West,270,0.0,-999.0,51,0.00,Rainy,,0.00,Open2300\PHP-WU,2013-02-03 23:03:00,
2013-02-03 18:09:00,43.5,26.6,29.97,WSW,247,0.0,-999.0,51,0.00,Rainy,,0.00,Open2300\PHP-WU,2013-02-03 23:09:00,
2013-02-03 18:15:00,43.3,26.4,29.97,SW,225,0.0,-999.0,51,0.00,Rainy,,0.00,Open2300\PHP-WU,2013-02-03 23:15:00,
2013-02-03 18:21:00,43.2,26.3,29.98,SSW,202,0.0,-999.0,51,0.00,Rainy,,0.00,Open2300\PHP-WU,2013-02-03 23:21:00,
2013-02-03 18:27:00,43.0,26.1,29.99,SW,225,0.0,-999.0,51,0.00,Rainy,,0.00,Open2300\PHP-WU,2013-02-03 23:27:00,
2013-02-03 18:32:00,42.6,25.3,29.99,SW,225,3.4,-999.0,50,0.00,Rainy,,0.00,Open2300\PHP-WU,2013-02-03 23:32:00,
2013-02-03 18:39:00,42.6,25.3,29.99,ESE,112,0.0,-999.0,50,0.00,Rainy,,0.00,Open2300\PHP-WU,2013-02-03 23:39:00,
2013-02-03 18:45:00,42.6,25.3,29.99,ENE,67,0.0,-999.0,50,0.00,Rainy,,0.00,Open2300\PHP-WU,2013-02-03 23:45:00,
2013-02-03 18:50:00,42.4,24.6,29.99,NE,45,0.0,-999.0,49,0.00,Rainy,,0.00,Open2300\PHP-WU,2013-02-03 23:50:00,
2013-02-03 18:57:00,42.4,24.1,29.99,North,0,0.0,-999.0,48,0.00,Rainy,,0.00,Open2300\PHP-WU,2013-02-03 23:57:00,
2013-02-03 19:03:00,42.4,24.1,29.99,NNW,337,0.0,-999.0,48,0.00,Rainy,,0.00,Open2300\PHP-WU,2013-02-04 00:03:00,
2013-02-03 19:09:00,42.1,23.7,30.00,WNW,292,0.0,-999.0,48,0.00,Rainy,,0.00,Open2300\PHP-WU,2013-02-04 00:09:00,
2013-02-03 19:14:00,42.1,23.7,30.00,North,0,0.0,-999.0,48,0.00,Rainy,,0.00,Open2300\PHP-WU,2013-02-04 00:14:00,
2013-02-03 19:21:00,41.9,23.6,30.00,NNE,22,0.0,-999.0,48,0.00,Rainy,,0.00,Open2300\PHP-WU,2013-02-04 00:21:00,
2013-02-03 19:27:00,41.5,23.2,30.00,North,0,0.0,-999.0,48,0.00,Rainy,,0.00,Open2300\PHP-WU,2013-02-04 00:27:00,
2013-02-03 19:32:00,40.8,22.5,30.01,WSW,247,0.0,-999.0,48,0.00,Rainy,,0.00,Open2300\PHP-WU,2013-02-04 00:32:00,
2013-02-03 19:39:00,40.6,22.9,30.01,NNW,337,0.0,-999.0,49,0.00,Rainy,,0.00,Open2300\PHP-WU,2013-02-04 00:39:00,
2013-02-03 19:45:00,40.5,22.7,30.02,North,0,0.0,-999.0,49,0.00,Rainy,,0.00,Open2300\PHP-WU,2013-02-04 00:45:00,
2013-02-03 19:50:00,40.3,22.6,30.02,NNE,22,0.0,-999.0,49,0.00,Rainy,,0.00,Open2300\PHP-WU,2013-02-04 00:50:00,
2013-02-03 19:56:00,39.9,22.7,30.02,East,90,0.0,-999.0,50,0.00,Rainy,,0.00,Open2300\PHP-WU,2013-02-04 00:56:00,
2013-02-03 20:03:00,39.9,22.7,30.02,SSW,202,0.0,-999.0,50,0.00,Rainy,,0.00,Open2300\PHP-WU,2013-02-04 01:03:00,
2013-02-03 20:08:00,39.7,23.0,30.02,ESE,112,0.0,-999.0,51,0.00,Rainy,,0.00,Open2300\PHP-WU,2013-02-04 01:08:00,
2013-02-03 20:14:00,39.7,23.0,30.02,SW,225,0.0,-999.0,51,0.00,Rainy,,0.00,Open2300\PHP-WU,2013-02-04 01:14:00,
2013-02-03 20:20:00,39.4,22.7,30.02,West,270,0.0,-999.0,51,0.00,Rainy,,0.00,Open2300\PHP-WU,2013-02-04 01:20:00,
2013-02-03 20:26:00,39.0,22.8,30.03,West,270,0.0,-999.0,52,0.00,Rainy,,0.00,Open2300\PHP-WU,2013-02-04 01:26:00,
2013-02-03 20:32:00,39.0,22.8,30.02,NNW,337,0.0,-999.0,52,0.00,Rainy,,0.00,Open2300\PHP-WU,2013-02-04 01:32:00,
2013-02-03 20:38:00,39.0,22.8,30.02,North,0,0.0,-999.0,52,0.00,Rainy,,0.00,Open2300\PHP-WU,2013-02-04 01:38:00,
2013-02-03 20:44:00,38.8,23.1,30.02,North,0,0.0,-999.0,53,0.00,Rainy,,0.00,Open2300\PHP-WU,2013-02-04 01:44:00,
2013-02-03 20:50:00,38.8,23.1,30.03,WSW,247,0.0,-999.0,53,0.00,Rainy,,0.00,Open2300\PHP-WU,2013-02-04 01:50:00,
2013-02-03 20:56:00,38.3,22.6,30.03,WSW,247,0.0,-999.0,53,0.00,Rainy,,0.00,Open2300\PHP-WU,2013-02-04 01:56:00,
2013-02-03 21:02:00,38.3,22.6,30.03,North,0,0.0,-999.0,53,0.00,Rainy,,0.00,Open2300\PHP-WU,2013-02-04 02:02:00,
2013-02-03 21:08:00,38.5,22.7,30.03,NE,45,0.0,-999.0,53,0.00,Rainy,,0.00,Open2300\PHP-WU,2013-02-04 02:08:00,
2013-02-03 21:14:00,38.5,22.7,30.03,NNW,337,0.0,-999.0,53,0.00,Rainy,,0.00,Open2300\PHP-WU,2013-02-04 02:14:00,
2013-02-03 21:20:00,38.3,22.6,30.04,NNE,22,0.0,-999.0,53,0.00,Rainy,,0.00,Open2300\PHP-WU,2013-02-04 02:20:00,
2013-02-03 21:26:00,37.9,22.3,30.04,NNW,337,0.0,-999.0,53,0.00,Rainy,,0.00,Open2300\PHP-WU,2013-02-04 02:26:00,
2013-02-03 21:32:00,37.9,22.7,30.04,North,0,0.0,-999.0,54,0.00,Rainy,,0.00,Open2300\PHP-WU,2013-02-04 02:32:00,
2013-02-03 21:38:00,37.8,22.5,30.03,North,0,0.0,-999.0,54,0.00,Rainy,,0.00,Open2300\PHP-WU,2013-02-04 02:38:00,
2013-02-03 21:44:00,37.6,22.4,30.03,North,0,0.0,-999.0,54,0.00,Rainy,,0.00,Open2300\PHP-WU,2013-02-04 02:44:00,
2013-02-03 21:50:00,37.2,22.0,30.04,North,0,0.0,-999.0,54,0.00,Rainy,,0.00,Open2300\PHP-WU,2013-02-04 02:50:00,
2013-02-03 21:56:00,36.9,21.7,30.04,North,0,0.0,-999.0,54,0.00,Rainy,,0.00,Open2300\PHP-WU,2013-02-04 02:56:00,
2013-02-03 22:02:00,36.3,21.7,30.04,North,0,0.0,-999.0,55,0.00,Rainy,,0.00,Open2300\PHP-WU,2013-02-04 03:02:00,
2013-02-03 22:08:00,35.8,21.2,30.04,North,0,0.0,-999.0,55,0.00,Rainy,,0.00,Open2300\PHP-WU,2013-02-04 03:08:00,
2013-02-03 22:14:00,35.4,21.3,30.04,North,0,0.0,-999.0,56,0.00,Rainy,,0.00,Open2300\PHP-WU,2013-02-04 03:14:00,
2013-02-03 22:20:00,35.2,21.1,30.04,North,0,0.0,-999.0,56,0.00,Rainy,,0.00,Open2300\PHP-WU,2013-02-04 03:20:00,
2013-02-03 22:26:00,34.9,20.7,30.04,NE,45,0.0,-999.0,56,0.00,Rainy,,0.00,Open2300\PHP-WU,2013-02-04 03:26:00,
2013-02-03 22:32:00,34.9,21.2,30.04,ENE,67,0.0,-999.0,57,0.00,Rainy,,0.00,Open2300\PHP-WU,2013-02-04 03:32:00,
2013-02-03 22:38:00,34.9,21.2,30.04,NNW,337,0.0,-999.0,57,0.00,Rainy,,0.00,Open2300\PHP-WU,2013-02-04 03:38:00,
2013-02-03 22:44:00,34.9,21.2,30.04,SSE,157,0.0,-999.0,57,0.00,Rainy,,0.00,Open2300\PHP-WU,2013-02-04 03:44:00,
2013-02-03 22:50:00,34.7,21.0,30.05,SW,225,0.0,-999.0,57,0.00,Rainy,,0.00,Open2300\PHP-WU,2013-02-04 03:50:00,
2013-02-03 22:56:00,34.5,20.8,30.05,SW,225,0.0,-999.0,57,0.00,Rainy,,0.00,Open2300\PHP-WU,2013-02-04 03:56:00,
2013-02-03 23:02:00,34.3,21.1,30.05,North,0,0.0,-999.0,58,0.00,Rainy,,0.00,Open2300\PHP-WU,2013-02-04 04:02:00,
2013-02-03 23:08:00,34.3,21.1,30.05,WNW,292,0.0,-999.0,58,0.00,Rainy,,0.00,Open2300\PHP-WU,2013-02-04 04:08:00,
2013-02-03 23:14:00,34.3,21.1,30.05,SW,225,0.0,-999.0,58,0.00,Rainy,,0.00,Open2300\PHP-WU,2013-02-04 04:14:00,
2013-02-03 23:20:00,34.3,21.1,30.05,NNE,22,0.0,-999.0,58,0.00,Rainy,,0.00,Open2300\PHP-WU,2013-02-04 04:20:00,
2013-02-03 23:26:00,34.5,21.2,30.05,ENE,67,0.0,-999.0,58,0.00,Rainy,,0.00,Open2300\PHP-WU,2013-02-04 04:26:00,
2013-02-03 23:32:00,34.9,21.6,30.05,NNW,337,0.0,-999.0,58,0.00,Rainy,,0.00,Open2300\PHP-WU,2013-02-04 04:32:00,
2013-02-03 23:38:00,35.2,21.5,30.05,SW,225,0.0,-999.0,57,0.00,Rainy,,0.00,Open2300\PHP-WU,2013-02-04 04:38:00,
2013-02-03 23:44:00,35.8,21.6,30.04,NNE,22,1.1,-999.0,56,0.00,Rainy,,0.00,Open2300\PHP-WU,2013-02-04 04:44:00,
2013-02-03 23:50:00,36.3,22.1,30.05,North,0,5.4,-999.0,56,0.00,Rainy,,0.00,Open2300\PHP-WU,2013-02-04 04:50:00,
2013-02-03 23:56:00,36.7,22.0,30.06,NNE,22,0.0,-999.0,55,0.00,Rainy,,0.00,Open2300\PHP-WU,2013-02-04 04:56:00,